Flight Information

DEPARTURE
LAS VEGAS, NV
Elevation:
1869
Runways:
3R/21L - 10051x150 - CONC
3L/21R - 10120x200 - CONC
Clearance Delivery:
120.9
Ground:
121.8
Tower:
132.55
DESTINATION
,
Elevation:
TPA:
1000 (est.)


6597.2 NM75° True-14° Var60° HDG

Flight Plan:
(click to file on line)

1. Type
2. Aircraft Identification
3. Aircraft Type / Special Equipment
4. True Airspeed
kts
5. Departure Airport
(ICAO code)
6. Arriving Airport
(ICAO code)
7. Cruising Altitude
ft
8. Alternate Airport
(ICAO code)
9. Route of Flight
10. Remarks


00:00:00 Departure ATIS: Destination ATIS:

Clearance Limit:
Route:
Altitude: Expect in minutes
Frequency:
Transponder: (7500 Hijack / 7600 Lost Comms / 7700 Emergency)


KLSV 080258Z AUTO 26008KT 10SM CLR 16/07 A2994 RMK AO2 SLP130 T01640073 55005 $
Time: 2020-04-08T02:58:00Z
1586314900
Winds: 260 @ 8 kts
Visibility: 10.0 sm
Clouds (AGL): CLR
Temperature: 16.4 C
Dew Point: 7.3 C
Pressure: 29.940945 in Hgbr


Notes:

Data extracted from FAA Digital Chart Supplement. Effective: 0901Z Thursday, Mar 26, 2020 to 0901Z Thursday, May 21, 2020
Current ATIS data is provided courtisy of PilotEdge.